Flight Track Log - Related Links

Times and Time Zones

All times are in EDT time to prevent confusion due to time zone crossing. See the DAL3698 flight status page for this flight to view local times or setup timezone preferences in your user account.

Time Position Orientation Groundspeed Altitude Reporting Facility
EDT Latitude Longitude Course Direction KTS MPH feet Rate Location/Type
Fri 07:58:33 AM 42.7808 -84.6372 276° West 153 176 2,600  Level Cleveland Center
Fri 07:58:50 AM 42.7800 -84.6469 263° West 162 186 2,900 1,692 Climbing Chicago Center
Fri 07:59:51 AM 42.7811 -84.7156 271° West 182 209 4,800 2,098 Climbing Chicago Center
Fri 08:00:53 AM 42.7819 -84.8058 271° West 231 266 7,200 2,244 Climbing Chicago Center
Fri 08:01:00 AM 42.7404 -85.0426 283° West  Level FlightAware Approximate
Fri 08:01:54 AM 42.7847 -84.8986 272° West 242 278 9,400  Level Chicago Center
Fri 08:02:00 AM 42.7548 -85.1619 276° West  Level FlightAware Approximate
Fri 08:02:56 AM 42.7856 -85.0008 271° West 265 305 11,500  Level Chicago Center
Fri 08:03:00 AM 42.7641 -85.2824 276° West  Level FlightAware Approximate
Fri 08:03:58 AM 42.7850 -85.1136 270° West 294 338 12,500  Level Chicago Center
Fri 08:04:59 AM 42.7861 -85.2361 271° West 320 368 14,400 2,244 Climbing Chicago Center
Fri 08:06:01 AM 42.7875 -85.3797 271° West 317 365 17,100 2,195 Climbing Chicago Center
Fri 08:07:02 AM 42.7883 -85.4936 271° West 303 349 18,900 1,415 Climbing Chicago Center
Fri 08:08:04 AM 42.8033 -85.6161 280° West 324 373 20,000 968 Climbing Chicago Center
Fri 08:09:06 AM 42.8183 -85.7392 279° West 328 377 20,900 878 Climbing Chicago Center
Fri 08:10:07 AM 42.8350 -85.8656 280° West 336 387 21,800 1,415 Climbing Chicago Center
Fri 08:11:09 AM 42.8511 -85.9869 280° West 322 371 23,800 1,452 Climbing Chicago Center
Fri 08:12:11 AM 42.8647 -86.1050 279° West 312 359 24,800 1,073 Climbing Chicago Center
Fri 08:13:12 AM 42.8808 -86.2236 281° West 315 362 26,000 585 Climbing Chicago Center
Fri 08:14:14 AM 42.8947 -86.3444 279° West 320 368 26,000  Level Chicago Center
Fri 08:15:16 AM 42.9100 -86.4633 280° West 318 366 26,000  Level Chicago Center
Fri 08:16:18 AM 42.9272 -86.6075 279° West 321 369 26,000  Level Chicago Center
Fri 08:17:20 AM 42.9414 -86.7269 279° West 320 368 26,000  Level Chicago Center
Fri 08:18:21 AM 42.9553 -86.8469 279° West 321 369 26,000  Level Chicago Center
Fri 08:19:23 AM 42.9697 -86.9678 279° West 324 373 26,000  Level Chicago Center
Fri 08:20:25 AM 42.9847 -87.0878 280° West 322 371 26,000  Level Chicago Center
Fri 08:21:27 AM 42.9978 -87.2078 279° West 322 371 26,000  Level Chicago Center
Fri 08:22:29 AM 43.0119 -87.3283 279° West 323 372 26,000  Level Chicago Center
Fri 08:23:31 AM 43.0281 -87.4686 279° West 318 366 26,000  Level Chicago Center
Fri 08:24:33 AM 43.0411 -87.5881 279° West 317 365 26,000  Level Chicago Center
Fri 08:25:34 AM 43.0539 -87.7078 278° West 317 365 26,000  Level Chicago Center
Fri 08:26:36 AM 43.0697 -87.8367 280° West 338 389 26,000  Level Chicago Center
Fri 08:27:38 AM 43.1442 -87.9878 304° West 404 465 26,000  Level Chicago Center
Fri 08:28:40 AM 43.2064 -88.1183 303° West 408 470 26,000  Level Chicago Center
Fri 08:29:42 AM 43.2694 -88.2475 304° West 406 467 26,000  Level Chicago Center
Fri 08:30:44 AM 43.3325 -88.3783 304° West 407 468 26,000  Level Chicago Center
Fri 08:31:46 AM 43.3983 -88.5133 304° West 412 474 26,000  Level Chicago Center
Fri 08:32:47 AM 43.4639 -88.6522 303° West 418 481 26,000  Level Chicago Center
Fri 08:33:49 AM 43.5278 -88.7872 303° West 418 481 26,000  Level Chicago Center
Fri 08:34:51 AM 43.5919 -88.9225 303° West 420 483 26,000  Level Chicago Center
Fri 08:35:53 AM 43.6550 -89.0550 303° West 413 475 26,000  Level Chicago Center
Fri 08:36:50 AM 43.7161 -89.1875 303° West 411 473 26,000  Level Minneapolis Center
Fri 08:37:51 AM 43.7786 -89.3211 303° West 414 476 26,000  Level Minneapolis Center
Fri 08:38:53 AM 43.8406 -89.4533 303° West 410 472 26,000  Level Minneapolis Center
Fri 08:39:54 AM 43.9119 -89.6078 303° West 410 472 26,000  Level Minneapolis Center
Fri 08:40:55 AM 43.9722 -89.7369 303° West 402 463 26,000  Level Minneapolis Center
Fri 08:41:57 AM 44.0294 -89.8625 302° West 391 450 26,000  Level Minneapolis Center
Fri 08:42:58 AM 44.0889 -89.9869 304° West 388 447 26,000  Level Minneapolis Center
Fri 08:43:59 AM 44.1567 -90.1058 308° West 392 451 26,000  Level Minneapolis Center
Fri 08:45:01 AM 44.2122 -90.2308 302° West 385 443 26,000  Level Minneapolis Center
Fri 08:46:02 AM 44.2653 -90.3578 300° West 381 438 26,000  Level Minneapolis Center
Fri 08:47:03 AM 44.3297 -90.5089 301° West 388 447 26,000  Level Minneapolis Center
Fri 08:48:05 AM 44.3847 -90.6417 300° West 395 455 26,000  Level Minneapolis Center
Fri 08:49:06 AM 44.4408 -90.7753 300° West 399 459 26,000  Level Minneapolis Center
Fri 08:50:08 AM 44.4992 -90.9186 300° West 394 453 26,000  Level Minneapolis Center
Fri 08:51:09 AM 44.5531 -91.0494 300° West 392 451 26,000  Level Minneapolis Center
Fri 08:52:11 AM 44.6064 -91.1808 300° West 391 450 26,000  Level Minneapolis Center
Fri 08:53:12 AM 44.6600 -91.3117 300° West 390 449 26,000 -541 Level Minneapolis Center
Fri 08:54:13 AM 44.7131 -91.4436 300° West 389 448 24,900 -976 Descending Minneapolis Center
Fri 08:55:15 AM 44.7653 -91.5714 300° West 384 442 24,000 -488 Descending Minneapolis Center
Fri 08:56:16 AM 44.8161 -91.6989 299° West 377 434 23,900 -1,366 Descending Minneapolis Center
Fri 08:57:18 AM 44.8672 -91.8272 299° West 378 435 21,200 -2,966 Descending Minneapolis Center
Fri 08:57:45 AM 44.9061 -91.9006 307° West 374 430 19,500 -3,191 Descending FAA TRACON SMA TRACON (SMA)
Fri 08:58:05 AM 44.9211 -91.9381 299° West 361 415 18,700 -3,300 Descending FAA TRACON SMA TRACON (SMA)
Fri 08:58:25 AM 44.9378 -91.9839 297° West 347 399 17,300 -3,300 Descending FAA TRACON SMA TRACON (SMA)
Fri 08:58:45 AM 44.9522 -92.0194 300° West 342 394 16,500 -2,250 Descending FAA TRACON SMA TRACON (SMA)
Fri 08:59:05 AM 44.9658 -92.0558 298° West 338 389 15,800 -2,550 Descending FAA TRACON SMA TRACON (SMA)
Fri 08:59:25 AM 44.9817 -92.1006 297° West 337 388 14,800 -2,700 Descending FAA TRACON SMA TRACON (SMA)
Fri 08:59:45 AM 44.9947 -92.1347 298° West 331 381 14,000 -2,250 Descending FAA TRACON SMA TRACON (SMA)
Fri 09:00:05 AM 45.0081 -92.1689 299° West 324 373 13,300 -2,550 Descending FAA TRACON SMA TRACON (SMA)
Fri 09:00:25 AM 45.0239 -92.2100 299° West 316 364 12,300 -2,634 Descending FAA TRACON SMA TRACON (SMA)
Fri 09:00:46 AM 45.0353 -92.2431 296° West 310 357 11,500 -1,902 Descending FAA TRACON SMA TRACON (SMA)
Fri 09:01:06 AM 45.0469 -92.2753 297° West 305 351 11,000 -750 Descending FAA TRACON SMA TRACON (SMA)
Fri 09:01:26 AM 45.0531 -92.3211 281° West 311 358 11,000 -308 Level FAA TRACON SMA TRACON (SMA)
Fri 09:01:45 AM 45.0472 -92.3586 258° West 315 362 10,800 -769 Descending FAA TRACON SMA TRACON (SMA)
Fri 09:02:05 AM 45.0403 -92.3933 254° West 304 350 10,500 -1,050 Descending FAA TRACON SMA TRACON (SMA)
Fri 09:02:25 AM 45.0333 -92.4261 253° West 288 331 10,100 -1,500 Descending FAA TRACON SMA TRACON (SMA)
Fri 09:02:45 AM 45.0264 -92.4664 256° West 275 316 9,500 -1,650 Descending FAA TRACON SMA TRACON (SMA)
Fri 09:03:05 AM 45.0206 -92.4981 255° West 270 311 9,000 -1,463 Descending FAA TRACON SMA TRACON (SMA)
Fri 09:03:26 AM 45.0150 -92.5294 256° West 267 307 8,500 -1,463 Descending FAA TRACON SMA TRACON (SMA)
Fri 09:03:46 AM 45.0081 -92.5683 256° West 265 305 8,000 -1,500 Descending FAA TRACON SMA TRACON (SMA)
Fri 09:04:06 AM 45.0039 -92.5997 259° West 265 305 7,500 -1,385 Descending FAA TRACON SMA TRACON (SMA)
Fri 09:04:25 AM 44.9992 -92.6300 258° West 261 300 7,100 -769 Descending FAA TRACON SMA TRACON (SMA)
Fri 09:04:45 AM 44.9925 -92.6678 256° West 255 293 7,000 -300 Descending FAA TRACON SMA TRACON (SMA)
Fri 09:05:05 AM 44.9864 -92.6975 254° West 255 293 6,900  Descending FAA TRACON SMA TRACON (SMA)
Fri 09:05:25 AM 44.9817 -92.7278 258° West 257 296 7,000 150 Climbing FAA TRACON SMA TRACON (SMA)
Fri 09:05:45 AM 44.9753 -92.7656 257° West 257 296 7,000 -150 Level FAA TRACON SMA TRACON (SMA)
Fri 09:06:05 AM 44.9700 -92.7961 256° West 260 299 6,900 -150 Descending FAA TRACON SMA TRACON (SMA)
Fri 09:06:25 AM 44.9614 -92.8258 248° West 266 306 6,900  Level FAA TRACON SMA TRACON (SMA)
Fri 09:06:45 AM 44.9361 -92.8492 213° Southwest 286 329 6,900  Level FAA TRACON SMA TRACON (SMA)
Fri 09:07:05 AM 44.9133 -92.8642 205° Southwest 290 334 6,900  Level FAA TRACON SMA TRACON (SMA)
Fri 09:07:25 AM 44.8903 -92.8719 193° South 289 333 6,900 150 Level FAA TRACON SMA TRACON (SMA)
Fri 09:07:45 AM 44.8636 -92.8542 155° Southeast 289 333 7,000  Climbing FAA TRACON SMA TRACON (SMA)
Fri 09:08:05 AM 44.8522 -92.8275 121° Southeast 272 313 6,900 -150 Descending FAA TRACON SMA TRACON (SMA)
Fri 09:08:25 AM 44.8417 -92.8011 119° Southeast 253 291 6,900 150 Level FAA TRACON SMA TRACON (SMA)
Fri 09:08:45 AM 44.8303 -92.7692 117° Southeast 238 274 7,000  Climbing FAA TRACON SMA TRACON (SMA)
Fri 09:09:05 AM 44.8156 -92.7492 136° Southeast 244 281 6,900 -146 Descending FAA TRACON SMA TRACON (SMA)
Fri 09:09:26 AM 44.7944 -92.7467 175° South 259 298 6,900 146 Level FAA TRACON SMA TRACON (SMA)
Fri 09:09:46 AM 44.7725 -92.7631 208° Southwest 248 285 7,000  Climbing FAA TRACON SMA TRACON (SMA)
Fri 09:10:06 AM 44.7569 -92.7767 212° Southwest 224 258 6,900 -450 Descending FAA TRACON SMA TRACON (SMA)
Fri 09:10:26 AM 44.7422 -92.7892 211° Southwest 209 241 6,700 -1,050 Descending FAA TRACON SMA TRACON (SMA)
Fri 09:10:46 AM 44.7344 -92.8136 246° West 196 226 6,200 -1,116 Descending FAA TRACON SMA TRACON (SMA)
Fri 09:11:09 AM 44.7319 -92.8347 261° West 180 207 5,900 -977 Descending FAA TRACON SMA TRACON (SMA)
Fri 09:11:29 AM 44.7344 -92.8578 279° West 168 193 5,500 -973 Descending FAA TRACON SMA TRACON (SMA)
Fri 09:11:46 AM 44.7389 -92.8694 298° West 153 176 5,300 -811 Descending FAA TRACON SMA TRACON (SMA)
Fri 09:12:06 AM 44.7481 -92.8881 305° West 147 169 5,000 -462 Descending FAA TRACON SMA TRACON (SMA)
Fri 09:12:25 AM 44.7553 -92.9028 305° West 147 169 5,000 -154 Level FAA TRACON SMA TRACON (SMA)
Fri 09:12:45 AM 44.7614 -92.9181 299° West 147 169 4,900 -150 Descending FAA TRACON SMA TRACON (SMA)
Fri 09:13:05 AM 44.7700 -92.9369 303° West 148 170 4,900  Level FAA TRACON SMA TRACON (SMA)
Fri 09:13:25 AM 44.7758 -92.9519 299° West 146 168 4,900 -150 Level FAA TRACON SMA TRACON (SMA)
Fri 09:13:45 AM 44.7828 -92.9667 304° West 144 166 4,800 -600 Descending FAA TRACON SMA TRACON (SMA)
Fri 09:14:05 AM 44.7903 -92.9853 300° West 144 166 4,500 -900 Descending FAA TRACON SMA TRACON (SMA)
Fri 09:14:25 AM 44.7972 -93.0003 303° West 145 167 4,200 -900 Descending FAA TRACON SMA TRACON (SMA)
Fri 09:14:45 AM 44.8036 -93.0144 302° West 143 165 3,900 -900 Descending FAA TRACON SMA TRACON (SMA)
Fri 09:15:05 AM 44.8111 -93.0319 301° West 137 158 3,600 -750 Descending FAA TRACON SMA TRACON (SMA)
Fri 09:15:25 AM 44.8175 -93.0464 302° West 137 158 3,400 -750 Descending FAA TRACON SMA TRACON (SMA)
Fri 09:15:45 AM 44.8233 -93.0606 300° West 138 159 3,100 -900 Descending FAA TRACON SMA TRACON (SMA)
Fri 09:16:05 AM 44.8314 -93.0781 303° West 138 159 2,800 -750 Descending FAA TRACON SMA TRACON (SMA)
Fri 09:16:25 AM 44.8378 -93.0928 301° West 140 161 2,600 -750 Descending FAA TRACON SMA TRACON (SMA)
Fri 09:16:45 AM 44.8436 -93.1078 299° West 143 165 2,300 -900 Descending FAA TRACON SMA TRACON (SMA)

Login

Don't have an account? Register now (free) for customized features, flight alerts, and more!